This is the latest recevied weather packets stored in our database for station/object EB1GOD-1. If no packets are shown the sender has not sent any weather packets the latest 10 day(s).
| Time | Temp. | Humidity | Pressure | Rain* | Wind** | Luminosity | Snow |
|---|---|---|---|---|---|---|---|
| 1777897992 | 13.89° C | 66% | 1152.6 hPa | - | - | - | - |
| 1777897092 | 16.11° C | 57% | 1152.6 hPa | - | - | - | - |
| 1777896192 | 16.67° C | 55% | 1152.8 hPa | - | - | - | - |
| 1777895292 | 15° C | 62% | 1152.8 hPa | - | - | - | - |
| 1777894392 | 15.56° C | 56% | 1153.1 hPa | - | - | - | - |
| 1777893492 | 15° C | 60% | 1153.2 hPa | - | - | - | - |
| 1777892592 | 13.89° C | 70% | 1153.3 hPa | - | - | - | - |
| 1777891680 | 13.33° C | 73% | 1153.6 hPa | - | - | - | - |
| 1777890780 | 13.33° C | 71% | 1153.7 hPa | - | - | - | - |
| 1777889880 | 13.89° C | 64% | 1153.6 hPa | - | - | - | - |
| 1777888979 | 13.89° C | 65% | 1153.4 hPa | - | - | - | - |
| 1777888079 | 13.89° C | 70% | 1153.5 hPa | - | - | - | - |
| 1777887182 | 12.78° C | 75% | 1153.6 hPa | - | - | - | - |
| 1777886277 | 11.67° C | 81% | 1153.6 hPa | - | - | - | - |
| 1777885377 | 11.67° C | 82% | 1153.6 hPa | - | - | - | - |
| 1777884485 | 11.11° C | 85% | 1153.6 hPa | - | - | - | - |
| 1777883577 | 11.11° C | 87% | 1153.6 hPa | - | - | - | - |
| 1777882677 | 10.56° C | 87% | 1153.5 hPa | - | - | - | - |
| 1777881777 | 11.11° C | 89% | 1153.4 hPa | - | - | - | - |
| 1777880877 | 10.56° C | 89% | 1153.3 hPa | - | - | - | - |
| 1777879977 | 10° C | 91% | 1153.2 hPa | - | - | - | - |
| 1777879077 | 9.44° C | 91% | 1153.2 hPa | - | - | - | - |
| 1777878177 | 9.44° C | 91% | 1153.4 hPa | - | - | - | - |
| 1777877276 | 9.44° C | 91% | 1153.4 hPa | - | - | - | - |
| 1777876376 | 8.89° C | 91% | 1153.3 hPa | - | - | - | - |
* Rain since midnight (hover to see other rain measurements)
** Current wind speed in m/s (hover to see current wind gust speed)